createdAt,value
2022-12-15T00:01:46.755Z,-1.80
2022-12-15T00:04:33.028Z,-1.70
2022-12-15T00:07:18.978Z,-1.80
2022-12-15T00:10:05.033Z,-1.80
2022-12-15T00:12:51.212Z,-1.80
2022-12-15T00:15:37.605Z,-1.80
2022-12-15T00:18:25.256Z,-1.80
2022-12-15T00:21:15.647Z,-1.80
2022-12-15T00:24:02.197Z,-1.80
2022-12-15T00:26:48.410Z,-1.80
2022-12-15T00:29:34.528Z,-1.80
2022-12-15T00:32:20.735Z,-1.80
2022-12-15T00:35:06.927Z,-1.90
2022-12-15T00:37:53.136Z,-1.80
2022-12-15T00:40:20.706Z,-1.80
2022-12-15T00:42:49.584Z,-1.80
2022-12-15T00:45:17.550Z,-1.80
2022-12-15T00:47:45.263Z,-1.80
2022-12-15T00:50:31.579Z,-1.80
2022-12-15T00:53:17.600Z,-1.80
2022-12-15T00:56:03.909Z,-1.80
2022-12-15T00:58:50.401Z,-1.80
2022-12-15T01:01:36.739Z,-1.80
2022-12-15T01:04:22.921Z,-1.80
2022-12-15T01:07:08.914Z,-1.80
2022-12-15T01:09:55.277Z,-1.70
2022-12-15T01:12:41.423Z,-1.70
2022-12-15T01:15:27.998Z,-1.90
2022-12-15T01:18:14.082Z,-1.90
2022-12-15T01:20:41.745Z,-1.80
2022-12-15T01:23:09.555Z,-1.70
2022-12-15T01:25:39.421Z,-1.70
2022-12-15T01:28:07.098Z,-1.80
2022-12-15T01:30:34.736Z,-1.80
2022-12-15T01:33:02.292Z,-1.70
2022-12-15T01:35:29.870Z,-1.80
2022-12-15T01:37:57.494Z,-1.80
2022-12-15T01:40:43.631Z,-1.80
2022-12-15T01:43:26.433Z,-1.80
2022-12-15T01:45:58.118Z,-1.80
2022-12-15T01:48:38.453Z,-1.70
2022-12-15T01:51:39.684Z,-1.80
2022-12-15T01:54:13.582Z,-1.80
2022-12-15T01:56:44.877Z,-1.80
2022-12-15T01:59:15.682Z,-1.90
2022-12-15T02:01:43.392Z,-2.00
2022-12-15T02:04:21.772Z,-1.90
2022-12-15T02:06:49.990Z,-1.90
2022-12-15T02:09:19.293Z,-2.00
2022-12-15T02:12:20.630Z,-1.90
2022-12-15T02:15:07.230Z,-2.00
2022-12-15T02:17:55.508Z,-2.00
2022-12-15T02:21:00.004Z,-2.10
2022-12-15T02:23:53.958Z,-2.20
2022-12-15T02:26:47.124Z,-2.20
2022-12-15T02:29:42.501Z,-2.10
2022-12-15T02:32:16.781Z,-2.10
2022-12-15T02:35:09.581Z,-2.20
2022-12-15T02:37:39.942Z,-2.10
2022-12-15T02:40:10.184Z,-2.10
2022-12-15T02:42:45.516Z,-2.00
2022-12-15T02:45:16.627Z,-2.00
2022-12-15T02:48:23.079Z,-2.10
2022-12-15T02:50:56.826Z,-2.30
2022-12-15T02:54:02.978Z,-2.20
2022-12-15T02:56:49.171Z,-2.10
2022-12-15T02:59:43.843Z,-2.00
2022-12-15T03:02:14.135Z,-2.10
2022-12-15T03:04:43.496Z,-2.10
2022-12-15T03:07:11.756Z,-2.00
2022-12-15T03:09:39.431Z,-2.00
2022-12-15T03:12:07.532Z,-2.00
2022-12-15T03:14:35.191Z,-2.00
2022-12-15T03:17:04.430Z,-2.10
2022-12-15T03:19:32.075Z,-2.00
2022-12-15T03:21:59.740Z,-2.00
2022-12-15T03:24:27.304Z,-2.10
2022-12-15T03:26:54.884Z,-2.00
2022-12-15T03:29:22.547Z,-2.00
2022-12-15T03:31:50.387Z,-1.90
2022-12-15T03:34:18.231Z,-2.00
2022-12-15T03:36:45.926Z,-2.10
2022-12-15T03:39:13.941Z,-2.10
2022-12-15T03:41:41.800Z,-2.00
2022-12-15T03:44:09.829Z,-2.00
2022-12-15T03:46:37.582Z,-1.90
2022-12-15T03:49:05.532Z,-2.00
2022-12-15T03:51:33.231Z,-2.10
2022-12-15T03:54:00.795Z,-2.10
2022-12-15T03:56:28.391Z,-2.00
2022-12-15T03:58:56.275Z,-1.90
2022-12-15T04:01:35.567Z,-1.90
2022-12-15T04:04:05.070Z,-1.90
2022-12-15T04:06:32.886Z,-1.80
2022-12-15T04:09:00.458Z,-1.90
2022-12-15T04:11:28.117Z,-1.90
2022-12-15T04:13:56.228Z,-1.90
2022-12-15T04:16:24.035Z,-1.90
2022-12-15T04:19:11.696Z,-1.80
2022-12-15T04:21:39.494Z,-1.80
2022-12-15T04:24:25.680Z,-1.80
2022-12-15T04:27:11.727Z,-1.90
2022-12-15T04:29:57.564Z,-1.80
2022-12-15T04:32:43.603Z,-1.80
2022-12-15T04:35:30.916Z,-1.70
2022-12-15T04:38:17.351Z,-1.80
2022-12-15T04:41:03.600Z,-1.80
2022-12-15T04:43:49.695Z,-1.80
2022-12-15T04:46:35.921Z,-1.80
2022-12-15T04:49:22.082Z,-1.70
2022-12-15T04:52:08.076Z,-1.70
2022-12-15T04:54:54.139Z,-1.70
2022-12-15T04:57:40.390Z,-1.70
2022-12-15T05:00:27.297Z,-1.60
2022-12-15T05:03:18.145Z,-1.70
2022-12-15T05:06:04.875Z,-1.80
2022-12-15T05:08:52.076Z,-1.70
2022-12-15T05:11:38.080Z,-1.60
2022-12-15T05:14:24.648Z,-1.70
2022-12-15T05:17:10.855Z,-1.80
2022-12-15T05:19:56.771Z,-1.80
2022-12-15T05:22:43.109Z,-1.60
2022-12-15T05:25:29.265Z,-1.60
2022-12-15T05:28:15.317Z,-1.60
2022-12-15T05:31:01.445Z,-1.70
2022-12-15T05:33:29.267Z,-1.70
2022-12-15T05:36:00.752Z,-1.70
2022-12-15T05:38:28.457Z,-1.70
2022-12-15T05:41:00.327Z,-1.60
2022-12-15T05:43:29.097Z,-1.60
2022-12-15T05:45:57.247Z,-1.60
2022-12-15T05:48:27.123Z,-1.60
2022-12-15T05:50:54.906Z,-1.60
2022-12-15T05:53:22.552Z,-1.70
2022-12-15T05:55:50.334Z,-1.80
2022-12-15T05:58:18.010Z,-1.80
2022-12-15T06:00:45.592Z,-1.90
2022-12-15T06:03:13.253Z,-1.80
2022-12-15T06:05:40.950Z,-1.80
2022-12-15T06:08:08.850Z,-1.70
2022-12-15T06:10:36.638Z,-1.60
2022-12-15T06:13:05.380Z,-1.60
2022-12-15T06:15:32.954Z,-1.60
2022-12-15T06:18:00.580Z,-1.50
2022-12-15T06:20:28.207Z,-1.50
2022-12-15T06:22:55.800Z,-1.50
2022-12-15T06:25:23.438Z,-1.60
2022-12-15T06:27:50.987Z,-1.60
2022-12-15T06:30:19.275Z,-1.60
2022-12-15T06:32:46.916Z,-1.60
2022-12-15T06:35:17.654Z,-1.60
2022-12-15T06:37:45.223Z,-1.60
2022-12-15T06:40:13.241Z,-1.50
2022-12-15T06:42:40.824Z,-1.50
2022-12-15T06:45:08.951Z,-1.50
2022-12-15T06:47:36.601Z,-1.50
2022-12-15T06:50:04.443Z,-1.50
2022-12-15T06:52:32.041Z,-1.50
2022-12-15T06:54:59.672Z,-1.50
2022-12-15T06:57:27.314Z,-1.50
2022-12-15T06:59:54.940Z,-1.60
2022-12-15T07:02:28.661Z,-1.60
2022-12-15T07:04:56.755Z,-1.60
2022-12-15T07:07:24.597Z,-1.60
2022-12-15T07:09:52.449Z,-1.60
2022-12-15T07:12:20.322Z,-1.60
2022-12-15T07:14:53.355Z,-1.40
2022-12-15T07:17:21.393Z,-1.40
2022-12-15T07:19:48.993Z,-1.40
2022-12-15T07:22:16.599Z,-1.40
2022-12-15T07:24:44.178Z,-1.30
2022-12-15T07:27:11.923Z,-1.30
2022-12-15T07:29:39.469Z,-1.30
2022-12-15T07:32:07.316Z,-1.40
2022-12-15T07:34:35.011Z,-1.40
2022-12-15T07:37:03.739Z,-1.40
2022-12-15T07:39:31.331Z,-1.30
2022-12-15T07:41:58.964Z,-1.30
2022-12-15T07:44:29.071Z,-1.30
2022-12-15T07:46:56.773Z,-1.30
2022-12-15T07:49:24.377Z,-1.40
2022-12-15T07:51:52.148Z,-1.30
2022-12-15T07:54:20.601Z,-1.20
2022-12-15T07:56:50.333Z,-1.20
2022-12-15T07:59:18.614Z,-1.20
2022-12-15T08:01:46.980Z,-1.30
2022-12-15T08:04:14.812Z,-1.10
2022-12-15T08:06:43.029Z,-1.00
2022-12-15T08:09:11.081Z,-1.10
2022-12-15T08:11:38.972Z,-1.00
2022-12-15T08:14:12.038Z,-0.90
2022-12-15T08:16:41.402Z,-0.80
2022-12-15T08:19:12.225Z,-0.80
2022-12-15T08:21:40.927Z,-0.80
2022-12-15T08:24:09.863Z,-0.80
2022-12-15T08:26:38.445Z,-0.80
2022-12-15T08:31:56.283Z,-0.80
2022-12-15T08:34:23.957Z,-0.70
2022-12-15T08:36:51.796Z,-0.70
2022-12-15T08:39:19.419Z,-0.80
2022-12-15T08:41:47.038Z,-0.70
2022-12-15T08:44:17.098Z,-0.70
2022-12-15T08:46:44.836Z,-0.60
2022-12-15T08:49:16.481Z,-0.60
2022-12-15T08:51:50.185Z,-0.70
2022-12-15T08:54:19.506Z,-0.70
2022-12-15T08:56:47.623Z,-0.60
2022-12-15T08:59:15.923Z,-0.70
2022-12-15T09:01:43.773Z,-0.60
2022-12-15T09:04:11.630Z,-0.60
2022-12-15T09:06:39.332Z,-0.50
2022-12-15T09:09:10.676Z,-0.70
2022-12-15T09:11:38.497Z,-0.50
2022-12-15T09:14:06.888Z,-0.50
2022-12-15T09:16:34.791Z,-0.40
2022-12-15T09:19:02.737Z,-0.40
2022-12-15T09:21:30.841Z,-0.40
2022-12-15T09:24:01.936Z,-0.50
2022-12-15T09:26:32.448Z,-0.30
2022-12-15T09:29:02.081Z,-0.20
2022-12-15T09:31:37.102Z,-0.20
2022-12-15T09:34:04.812Z,-0.20
2022-12-15T09:36:33.110Z,-0.20
2022-12-15T09:39:02.377Z,-0.20
2022-12-15T09:41:36.478Z,0.00
2022-12-15T09:44:04.099Z,0.10
2022-12-15T09:46:56.066Z,0.10
2022-12-15T09:49:46.150Z,-0.10
2022-12-15T09:52:20.002Z,0.00
2022-12-15T09:54:47.897Z,0.20
2022-12-15T09:57:44.683Z,0.20
2022-12-15T10:00:25.677Z,0.20
2022-12-15T10:03:17.667Z,0.10
2022-12-15T10:06:17.063Z,0.10
2022-12-15T10:09:19.752Z,0.10
2022-12-15T10:14:54.392Z,0.10
2022-12-15T10:17:25.721Z,0.20
2022-12-15T10:20:19.740Z,0.30
2022-12-15T10:22:50.502Z,0.50
2022-12-15T10:25:29.651Z,0.60
2022-12-15T10:28:15.589Z,0.70
2022-12-15T10:30:59.364Z,0.90
2022-12-15T10:33:35.658Z,1.00
2022-12-15T10:36:11.230Z,1.00
2022-12-15T10:38:42.580Z,1.10
2022-12-15T10:41:12.401Z,1.10
2022-12-15T10:43:42.424Z,1.00
2022-12-15T10:46:25.140Z,0.80
2022-12-15T10:48:59.345Z,0.70
2022-12-15T10:51:31.751Z,0.90
2022-12-15T10:54:11.729Z,0.80
2022-12-15T10:57:00.425Z,0.90
2022-12-15T10:59:34.345Z,0.90
2022-12-15T11:02:23.988Z,0.90
2022-12-15T11:05:15.766Z,0.90
2022-12-15T11:07:55.241Z,0.90
2022-12-15T11:10:24.446Z,1.00
2022-12-15T11:13:10.696Z,1.10
2022-12-15T11:15:41.788Z,1.20
2022-12-15T11:18:19.750Z,1.20
2022-12-15T11:20:57.247Z,1.10
2022-12-15T11:23:46.659Z,1.10
2022-12-15T11:26:26.714Z,1.10
2022-12-15T11:29:01.585Z,1.20
2022-12-15T11:31:41.768Z,1.10
2022-12-15T11:34:15.654Z,1.00
2022-12-15T11:36:57.109Z,1.00
2022-12-15T11:39:39.885Z,1.00
2022-12-15T11:42:21.050Z,1.10
2022-12-15T11:45:02.392Z,1.10
2022-12-15T11:48:13.179Z,1.00
2022-12-15T11:51:36.570Z,1.00
2022-12-15T11:54:16.779Z,1.00
2022-12-15T11:57:21.064Z,1.00
2022-12-15T11:59:54.776Z,1.00
2022-12-15T12:02:57.600Z,1.00
2022-12-15T12:05:40.186Z,1.10
2022-12-15T12:08:39.646Z,1.00
2022-12-15T12:11:13.592Z,0.90
2022-12-15T12:14:02.597Z,0.90
2022-12-15T12:16:36.966Z,0.90
2022-12-15T12:19:19.545Z,1.00
2022-12-15T12:21:51.694Z,0.90
2022-12-15T12:24:41.366Z,0.90
2022-12-15T12:27:33.795Z,1.00
2022-12-15T12:30:06.788Z,0.90
2022-12-15T12:32:43.321Z,1.00
2022-12-15T12:35:31.212Z,1.00
2022-12-15T12:38:04.419Z,1.00
2022-12-15T12:40:59.674Z,1.00
2022-12-15T12:43:52.670Z,1.00
2022-12-15T12:46:42.312Z,0.90
2022-12-15T12:49:44.362Z,0.90
2022-12-15T12:52:21.556Z,1.00
2022-12-15T12:55:00.823Z,1.10
2022-12-15T12:57:43.130Z,1.00
2022-12-15T13:00:21.337Z,1.10
2022-12-15T13:03:11.734Z,1.00
2022-12-15T13:05:41.366Z,1.00
2022-12-15T13:08:08.859Z,1.00
2022-12-15T13:10:47.629Z,1.00
2022-12-15T13:13:33.767Z,1.00
2022-12-15T13:16:25.644Z,1.00
2022-12-15T13:19:06.927Z,1.00
2022-12-15T13:21:43.851Z,1.00
2022-12-15T13:24:41.373Z,1.10
2022-12-15T13:27:09.166Z,1.00
2022-12-15T13:29:54.339Z,1.00
2022-12-15T13:32:40.985Z,1.10
2022-12-15T13:35:14.602Z,1.00
2022-12-15T13:37:57.451Z,0.90
2022-12-15T13:40:52.653Z,0.80
2022-12-15T13:43:26.417Z,0.70
2022-12-15T13:45:56.831Z,0.70
2022-12-15T13:48:27.653Z,0.90
2022-12-15T13:51:21.373Z,0.90
2022-12-15T13:54:01.461Z,1.00
2022-12-15T13:56:57.500Z,1.10
2022-12-15T13:59:33.814Z,1.10
2022-12-15T14:02:01.444Z,1.00
2022-12-15T14:04:29.523Z,1.00
2022-12-15T14:07:00.909Z,1.00
2022-12-15T14:09:33.840Z,1.00
2022-12-15T14:12:01.869Z,1.00
2022-12-15T14:14:42.540Z,1.00
2022-12-15T14:17:15.423Z,1.00
2022-12-15T14:19:43.872Z,0.80
2022-12-15T14:22:28.966Z,0.90
2022-12-15T14:25:20.525Z,1.00
2022-12-15T14:27:51.079Z,0.90
2022-12-15T14:30:45.175Z,1.00
2022-12-15T14:33:17.997Z,1.00
2022-12-15T14:35:50.039Z,1.00
2022-12-15T14:38:24.014Z,1.00
2022-12-15T14:40:54.300Z,1.00
2022-12-15T14:43:26.195Z,0.90
2022-12-15T14:46:07.807Z,0.90
2022-12-15T14:51:29.892Z,0.90
2022-12-15T14:53:57.677Z,1.00
2022-12-15T14:56:31.229Z,0.90
2022-12-15T14:59:05.892Z,0.90
2022-12-15T15:01:35.797Z,0.90
2022-12-15T15:03:04.236Z,0.10
2022-12-15T15:03:14.538Z,0.90
2022-12-15T15:04:06.124Z,0.90
2022-12-15T15:06:39.577Z,0.90
2022-12-15T15:09:38.337Z,0.90
2022-12-15T15:12:18.401Z,0.90
2022-12-15T15:14:53.180Z,0.90
2022-12-15T15:17:25.633Z,0.90
2022-12-15T15:20:27.845Z,0.90
2022-12-15T15:23:07.583Z,0.90
2022-12-15T15:25:40.683Z,0.80
2022-12-15T15:28:14.818Z,0.90
2022-12-15T15:30:56.719Z,0.90
2022-12-15T15:33:26.090Z,0.80
2022-12-15T15:35:56.352Z,0.80
2022-12-15T15:38:38.451Z,0.80
2022-12-15T15:41:16.221Z,0.70
2022-12-15T15:43:43.993Z,0.70
2022-12-15T15:46:18.113Z,0.70
2022-12-15T15:48:50.408Z,0.80
2022-12-15T15:51:18.935Z,0.80
2022-12-15T15:53:46.843Z,0.80
2022-12-15T15:56:16.660Z,0.80
2022-12-15T15:58:44.312Z,0.80
2022-12-15T16:01:13.617Z,0.80
2022-12-15T16:03:42.108Z,0.80
2022-12-15T16:06:21.134Z,0.80
2022-12-15T16:08:54.264Z,0.70
2022-12-15T16:11:23.128Z,0.80
2022-12-15T16:13:50.676Z,0.80
2022-12-15T16:16:26.856Z,0.80
2022-12-15T16:18:54.471Z,0.60
2022-12-15T16:21:25.332Z,0.40
2022-12-15T16:23:53.981Z,0.30
2022-12-15T16:26:32.750Z,0.50
2022-12-15T16:29:00.443Z,0.50
2022-12-15T16:31:41.915Z,0.40
2022-12-15T16:34:09.851Z,0.50
2022-12-15T16:36:37.869Z,0.60
2022-12-15T16:39:11.426Z,0.60
2022-12-15T16:41:39.151Z,0.70
2022-12-15T16:44:12.304Z,0.70
2022-12-15T16:46:40.022Z,0.70
2022-12-15T16:49:07.748Z,0.90
2022-12-15T16:51:40.254Z,0.70
2022-12-15T16:54:15.701Z,0.80
2022-12-15T16:56:43.447Z,0.60
2022-12-15T16:59:35.949Z,0.50
2022-12-15T17:02:24.384Z,0.30
2022-12-15T17:04:52.599Z,0.30
2022-12-15T17:07:21.201Z,0.60
2022-12-15T17:09:50.679Z,0.70
2022-12-15T17:12:18.839Z,0.70
2022-12-15T17:14:46.867Z,0.50
2022-12-15T17:17:16.717Z,0.60
2022-12-15T17:20:11.832Z,0.70
2022-12-15T17:22:33.418Z,0.80
2022-12-15T17:25:01.713Z,0.70
2022-12-15T17:27:30.361Z,0.90
2022-12-15T17:30:00.193Z,0.80
2022-12-15T17:32:27.894Z,0.80
2022-12-15T17:34:56.003Z,0.90
2022-12-15T17:37:27.090Z,1.00
2022-12-15T17:39:57.422Z,0.70
2022-12-15T17:42:25.197Z,0.70
2022-12-15T17:44:53.131Z,1.00
2022-12-15T17:47:21.387Z,0.90
2022-12-15T17:49:49.333Z,0.80
2022-12-15T17:52:20.441Z,0.80
2022-12-15T17:54:48.604Z,0.80
2022-12-15T17:57:16.221Z,0.70
2022-12-15T17:59:44.147Z,0.80
2022-12-15T18:02:14.346Z,0.80
2022-12-15T18:04:44.457Z,0.90
2022-12-15T18:07:23.923Z,0.50
2022-12-15T18:09:53.492Z,0.50
2022-12-15T18:12:24.055Z,0.40
2022-12-15T18:14:54.380Z,0.50
2022-12-15T18:17:24.406Z,0.40
2022-12-15T18:19:52.443Z,0.40
2022-12-15T18:22:24.893Z,0.60
2022-12-15T18:24:54.312Z,0.50
2022-12-15T18:27:28.244Z,0.50
2022-12-15T18:29:56.929Z,0.40
2022-12-15T18:32:27.053Z,0.60
2022-12-15T18:34:55.554Z,0.60
2022-12-15T18:37:25.328Z,0.90
2022-12-15T18:39:57.225Z,0.60
2022-12-15T18:42:30.390Z,0.40
2022-12-15T18:45:00.475Z,0.40
2022-12-15T18:47:28.625Z,0.60
2022-12-15T18:49:56.646Z,0.70
2022-12-15T18:52:30.013Z,0.90
2022-12-15T18:55:02.206Z,0.90
2022-12-15T18:57:32.563Z,0.90
2022-12-15T19:00:10.408Z,0.80
2022-12-15T19:02:39.041Z,0.60
2022-12-15T19:05:07.583Z,0.60
2022-12-15T19:07:37.233Z,0.80
2022-12-15T19:10:05.607Z,0.90
2022-12-15T19:12:34.518Z,0.90
2022-12-15T19:15:02.404Z,1.00
2022-12-15T19:17:48.735Z,1.00
2022-12-15T19:20:39.273Z,1.10
2022-12-15T19:23:07.810Z,0.90
2022-12-15T19:25:36.115Z,1.00
2022-12-15T19:28:07.243Z,1.10
2022-12-15T19:30:42.063Z,1.00
2022-12-15T19:33:13.475Z,1.10
2022-12-15T19:35:45.086Z,0.90
2022-12-15T19:38:24.951Z,0.90
2022-12-15T19:40:54.746Z,1.00
2022-12-15T19:43:26.169Z,0.90
2022-12-15T19:45:54.825Z,0.90
2022-12-15T19:48:24.036Z,0.80
2022-12-15T19:50:55.012Z,0.70
2022-12-15T19:53:28.776Z,0.60
2022-12-15T19:56:01.563Z,0.80
2022-12-15T19:58:32.021Z,0.90
2022-12-15T20:01:07.843Z,0.90
2022-12-15T20:03:37.591Z,0.90
2022-12-15T20:06:15.209Z,1.00
2022-12-15T20:08:45.807Z,0.90
2022-12-15T20:11:28.519Z,0.80
2022-12-15T20:13:56.827Z,0.60
2022-12-15T20:16:25.494Z,0.80
2022-12-15T20:18:56.652Z,0.80
2022-12-15T20:21:31.554Z,0.90
2022-12-15T20:24:06.768Z,0.50
2022-12-15T20:26:37.772Z,0.30
2022-12-15T20:29:19.377Z,0.70
2022-12-15T20:31:47.742Z,0.80
2022-12-15T20:34:18.659Z,0.50
2022-12-15T20:36:47.580Z,0.70
2022-12-15T20:39:25.574Z,0.80
2022-12-15T20:41:54.939Z,0.20
2022-12-15T20:44:24.698Z,0.20
2022-12-15T20:46:52.359Z,0.70
2022-12-15T20:49:22.339Z,0.80
2022-12-15T20:51:51.211Z,0.90
2022-12-15T20:54:22.022Z,0.60
2022-12-15T20:56:52.002Z,0.40
2022-12-15T20:59:19.730Z,0.40
2022-12-15T21:01:48.816Z,0.60
2022-12-15T21:04:22.561Z,0.90
2022-12-15T21:06:54.636Z,0.90
2022-12-15T21:09:23.773Z,1.00
2022-12-15T21:11:52.678Z,0.80
2022-12-15T21:14:24.119Z,0.80
2022-12-15T21:16:51.794Z,0.90
2022-12-15T21:19:21.291Z,0.90
2022-12-15T21:21:55.420Z,0.90
2022-12-15T21:24:26.460Z,1.00
2022-12-15T21:26:56.432Z,0.80
2022-12-15T21:29:26.541Z,0.70
2022-12-15T21:31:54.617Z,0.80
2022-12-15T21:34:22.256Z,0.50
2022-12-15T21:36:52.354Z,0.40
2022-12-15T21:39:34.133Z,0.70
2022-12-15T21:42:06.207Z,0.80
2022-12-15T21:44:33.935Z,0.80
2022-12-15T21:47:01.574Z,0.70
2022-12-15T21:49:29.126Z,0.60
2022-12-15T21:51:59.922Z,0.30
2022-12-15T21:54:31.722Z,0.40
2022-12-15T21:57:00.563Z,0.30
2022-12-15T21:59:33.152Z,0.20
2022-12-15T22:02:01.148Z,0.40
2022-12-15T22:04:32.554Z,0.40
2022-12-15T22:07:00.484Z,0.50
2022-12-15T22:09:28.741Z,0.50
2022-12-15T22:11:56.671Z,0.30
2022-12-15T22:14:27.002Z,0.70
2022-12-15T22:16:55.055Z,0.50
2022-12-15T22:19:23.452Z,0.40
2022-12-15T22:21:52.098Z,0.50
2022-12-15T22:24:20.214Z,0.70
2022-12-15T22:26:47.914Z,0.40
2022-12-15T22:29:19.126Z,0.40
2022-12-15T22:31:47.493Z,0.40
2022-12-15T22:34:19.728Z,0.50
2022-12-15T22:36:48.289Z,0.50
2022-12-15T22:39:16.588Z,0.40
2022-12-15T22:41:47.043Z,0.40
2022-12-15T22:44:20.101Z,0.80
2022-12-15T22:46:49.174Z,0.50
2022-12-15T22:49:21.466Z,0.60
2022-12-15T22:51:49.099Z,0.50
2022-12-15T22:54:22.727Z,0.40
2022-12-15T22:56:59.139Z,0.40
2022-12-15T22:59:36.223Z,0.60
2022-12-15T23:02:04.873Z,0.70
2022-12-15T23:04:33.160Z,0.90
2022-12-15T23:07:03.413Z,0.60
2022-12-15T23:09:31.400Z,0.40
2022-12-15T23:11:59.360Z,0.40
2022-12-15T23:14:46.094Z,0.40
2022-12-15T23:17:14.355Z,0.70
2022-12-15T23:19:46.070Z,0.60
2022-12-15T23:22:14.307Z,0.40
2022-12-15T23:24:42.177Z,0.40
2022-12-15T23:27:11.554Z,0.50
2022-12-15T23:29:39.292Z,0.70
2022-12-15T23:32:07.061Z,0.50
2022-12-15T23:34:35.803Z,0.30
2022-12-15T23:37:03.413Z,0.30
2022-12-15T23:39:31.240Z,0.80
2022-12-15T23:41:58.778Z,0.50
2022-12-15T23:44:26.653Z,0.40
2022-12-15T23:46:54.262Z,0.50
2022-12-15T23:49:21.978Z,0.70
2022-12-15T23:51:49.585Z,0.80
2022-12-15T23:54:17.134Z,0.60
2022-12-15T23:56:44.636Z,0.70
2022-12-15T23:59:13.074Z,0.70
